Time;durP1;ratioP1;P1;durP2;ratioP2;P2;SDS_P1;SDS_P2;PMS_P1;PMS_P2;Temp;Humidity;BMP_temperature;BMP_pressure;BME280_temperature;BME280_humidity;BME280_pressure;Samples;Min_cycle;Max_cycle;Signal;HPM_P1;HPM_P2
2022/05/28 00:01:56;;;;;;;3.78;0.80;;;;;;;9.16;76.66;101183.03;4981998;28;20144;-50
2022/05/28 00:04:21;;;;;;;4.75;1.13;;;;;;;9.20;75.76;101190.38;4982601;28;20050;-49
2022/05/28 00:06:47;;;;;;;4.57;1.10;;;;;;;9.16;76.53;101178.50;4985649;28;20109;-49
2022/05/28 00:09:12;;;;;;;3.38;1.02;;;;;;;9.15;76.33;101176.84;4987436;28;20061;-49
2022/05/28 00:11:43;;;;;;;5.63;1.35;;;;;;;9.15;76.05;101181.38;4979724;28;20037;-50
2022/05/28 00:14:10;;;;;;;4.88;1.40;;;;;;;9.09;76.34;101175.09;4979190;28;20023;-49
2022/05/28 00:16:36;;;;;;;8.90;1.70;;;;;;;9.12;76.53;101171.13;4978329;28;20535;-50
2022/05/28 00:19:02;;;;;;;4.07;1.20;;;;;;;9.14;76.40;101161.84;4983408;28;20068;-49
2022/05/28 00:21:28;;;;;;;5.90;2.00;;;;;;;9.16;76.32;101172.34;4984333;28;20500;-49
2022/05/28 00:23:54;;;;;;;9.27;1.30;;;;;;;9.08;76.83;101166.25;4984020;28;20065;-50
2022/05/28 00:26:20;;;;;;;6.38;1.42;;;;;;;9.07;76.84;101169.16;4974297;28;20034;-53
2022/05/28 00:28:46;;;;;;;6.53;1.40;;;;;;;9.07;77.11;101171.81;4982830;28;20061;-49
2022/05/28 00:31:12;;;;;;;6.28;1.30;;;;;;;9.09;76.59;101167.88;4988856;28;20279;-49
2022/05/28 00:33:38;;;;;;;3.58;0.95;;;;;;;9.12;76.69;101165.78;4987278;28;20065;-52
2022/05/28 00:36:08;;;;;;;4.88;1.40;;;;;;;9.10;76.60;101158.00;4985693;28;20467;-50
2022/05/28 00:38:34;;;;;;;7.85;1.65;;;;;;;9.12;76.12;101155.09;4990687;28;20049;-49
2022/05/28 00:41:00;;;;;;;5.18;1.45;;;;;;;9.10;76.12;101160.69;4985857;28;20033;-49
2022/05/28 00:43:27;;;;;;;3.67;1.50;;;;;;;9.03;76.59;101154.63;4988359;28;20530;-49
2022/05/28 00:46:01;;;;;;;4.72;1.65;;;;;;;9.02;76.43;101153.81;4983195;28;20225;-51
2022/05/28 00:48:31;;;;;;;6.75;1.70;;;;;;;8.98;76.50;101146.47;4986974;28;20022;-51
2022/05/28 00:51:04;;;;;;;6.72;1.17;;;;;;;8.99;76.34;101140.09;4977911;28;20026;-49
2022/05/28 00:53:30;;;;;;;4.07;1.30;;;;;;;8.96;76.69;101135.19;4976379;28;21509;-52
2022/05/28 00:55:55;;;;;;;4.22;1.10;;;;;;;8.93;76.29;101136.44;4975516;28;20030;-50
2022/05/28 00:58:21;;;;;;;4.53;1.60;;;;;;;9.00;76.34;101141.72;4980825;28;20026;-50
2022/05/28 01:00:47;;;;;;;4.95;1.20;;;;;;;9.00;75.94;101137.19;4979940;28;20019;-50
2022/05/28 01:03:25;;;;;;;5.70;1.67;;;;;;;8.98;76.48;101131.25;4984867;28;20100;-52
2022/05/28 01:06:03;;;;;;;7.95;1.95;;;;;;;9.00;75.80;101125.69;4987178;28;20364;-51
2022/05/28 01:08:38;;;;;;;8.23;1.65;;;;;;;9.09;75.76;101124.28;4987272;28;20408;-50
2022/05/28 01:11:12;;;;;;;;;;;;;;;9.08;75.92;101123.47;4985927;28;20033;-50
2022/05/28 01:13:56;;;;;;;7.63;1.63;;;;;;;9.16;75.37;101125.03;4984145;28;19913;-50
2022/05/28 01:16:35;;;;;;;6.35;1.48;;;;;;;9.21;75.13;101122.47;4981231;28;20179;-49
2022/05/28 01:19:19;;;;;;;7.43;1.98;;;;;;;9.26;75.05;101124.44;4972372;28;20038;-51
2022/05/28 01:21:53;;;;;;;6.25;2.00;;;;;;;9.31;74.84;101116.53;4974540;28;20033;-50
2022/05/28 01:24:29;;;;;;;5.63;1.50;;;;;;;9.32;74.68;101119.00;4967132;28;20699;-51
2022/05/28 01:27:02;;;;;;;9.25;1.73;;;;;;;9.21;74.91;101117.13;4968126;28;20429;-53
2022/05/28 01:29:45;;;;;;;8.25;1.40;;;;;;;9.25;74.77;101118.28;4970736;28;20049;-51
2022/05/28 01:32:13;;;;;;;7.63;1.20;;;;;;;9.23;74.73;101107.00;4968880;28;20030;-50
2022/05/28 01:34:40;;;;;;;8.63;1.50;;;;;;;9.23;74.73;101109.69;4965563;28;20034;-52
2022/05/28 01:37:07;;;;;;;5.88;1.35;;;;;;;9.25;74.76;101099.56;4972349;28;20376;-50
2022/05/28 01:39:34;;;;;;;7.32;1.17;;;;;;;9.21;74.75;101095.75;4968881;28;20507;-52
2022/05/28 01:42:02;;;;;;;5.97;1.48;;;;;;;9.26;74.71;101087.84;4965934;28;20594;-50
2022/05/28 01:44:31;;;;;;;6.00;1.42;;;;;;;9.31;74.56;101087.94;4966248;28;20093;-51
2022/05/28 01:46:57;;;;;;;7.30;1.33;;;;;;;9.28;74.86;101088.41;4967683;28;20026;-51
2022/05/28 01:49:24;;;;;;;7.18;1.20;;;;;;;9.21;75.23;101086.91;4967873;28;20510;-50
2022/05/28 01:51:55;;;;;;;7.05;1.30;;;;;;;9.20;75.50;101087.94;4970607;28;20114;-51
2022/05/28 01:54:25;;;;;;;6.35;1.25;;;;;;;9.18;75.62;101080.16;4965825;28;20058;-49
2022/05/28 01:56:53;;;;;;;6.35;1.63;;;;;;;9.17;75.47;101072.38;4968256;28;20329;-49
2022/05/28 01:59:28;;;;;;;7.65;1.60;;;;;;;9.13;75.72;101065.84;4969978;28;21428;-51
2022/05/28 02:01:56;;;;;;;6.82;1.90;;;;;;;9.07;75.69;101070.25;4969562;28;20066;-50
2022/05/28 02:04:22;;;;;;;4.15;1.27;;;;;;;8.99;76.01;101065.25;4970007;28;20080;-50
2022/05/28 02:06:48;;;;;;;9.57;1.65;;;;;;;8.95;76.12;101064.88;4965438;28;20030;-50
2022/05/28 02:09:18;;;;;;;6.22;2.10;;;;;;;8.96;76.11;101049.66;4968213;28;20034;-52
2022/05/28 02:11:47;;;;;;;5.28;1.50;;;;;;;8.98;75.76;101047.59;4967190;28;21300;-51
2022/05/28 02:14:41;;;;;;;6.88;1.50;;;;;;;8.90;76.35;101051.41;4972485;28;20397;-50
2022/05/28 02:17:31;;;;;;;11.68;2.00;;;;;;;8.80;76.95;101051.16;4967363;28;20165;-50
2022/05/28 02:19:57;;;;;;;5.70;1.65;;;;;;;8.82;77.10;101048.25;4968933;28;20379;-50
2022/05/28 02:22:47;;;;;;;5.88;1.40;;;;;;;8.81;77.33;101044.78;4968603;28;20030;-49
2022/05/28 02:25:22;;;;;;;6.60;1.80;;;;;;;8.78;77.27;101038.00;4967769;28;20530;-50
2022/05/28 02:27:49;;;;;;;;;;;;;;;8.80;77.21;101040.47;4968434;28;20038;-51
2022/05/28 02:30:14;;;;;;;11.85;2.08;;;;;;;8.75;77.44;101035.78;4967412;28;20412;-50
2022/05/28 02:32:40;;;;;;;6.72;1.50;;;;;;;8.76;77.45;101042.75;4967000;28;20027;-49
2022/05/28 02:35:07;;;;;;;5.63;1.60;;;;;;;8.76;77.48;101039.28;4963929;28;20038;-50
2022/05/28 02:37:33;;;;;;;9.75;1.92;;;;;;;8.75;77.64;101038.47;4968346;28;20038;-49
2022/05/28 02:39:58;;;;;;;7.53;1.90;;;;;;;8.81;77.29;101033.28;4971027;28;20472;-52
2022/05/28 02:42:24;;;;;;;9.80;1.95;;;;;;;8.85;77.59;101021.88;4967310;28;20037;-50
2022/05/28 02:44:50;;;;;;;10.70;2.10;;;;;;;8.91;77.03;101030.84;4969236;28;20023;-51
2022/05/28 02:47:16;;;;;;;6.07;1.42;;;;;;;8.93;77.43;101026.88;4986838;28;20030;-52
2022/05/28 02:49:42;;;;;;;8.35;1.83;;;;;;;8.89;77.00;101024.91;4977461;28;20026;-51
2022/05/28 02:52:08;;;;;;;4.65;1.40;;;;;;;8.93;77.15;101018.88;4979103;28;20042;-49
2022/05/28 02:54:34;;;;;;;5.00;1.65;;;;;;;8.96;76.71;101018.41;4966986;28;20022;-50
2022/05/28 02:57:00;;;;;;;10.98;2.28;;;;;;;8.95;76.52;101011.44;4965665;28;20072;-52
2022/05/28 02:59:26;;;;;;;7.25;1.40;;;;;;;8.95;76.84;101015.97;4969805;28;20456;-49
2022/05/28 03:01:52;;;;;;;8.52;1.88;;;;;;;8.93;76.75;101012.72;4983399;28;20040;-49
2022/05/28 03:04:18;;;;;;;6.90;1.98;;;;;;;8.98;76.92;101008.31;4981823;28;20097;-50
2022/05/28 03:06:44;;;;;;;3.55;1.40;;;;;;;9.03;76.49;101008.44;4987480;28;20109;-49
2022/05/28 03:09:10;;;;;;;8.10;1.88;;;;;;;8.99;76.16;101012.63;4988416;28;20105;-51
2022/05/28 03:11:38;;;;;;;12.05;1.80;;;;;;;8.97;76.41;101004.00;4985499;28;20585;-50
2022/05/28 03:14:04;;;;;;;6.07;1.70;;;;;;;9.00;75.94;101008.91;4978955;28;20030;-50
2022/05/28 03:16:30;;;;;;;10.82;1.75;;;;;;;9.02;75.67;101006.81;4982738;28;20030;-50
2022/05/28 03:18:55;;;;;;;3.28;1.30;;;;;;;9.05;75.44;101005.53;4980727;28;20072;-49
2022/05/28 03:21:21;;;;;;;6.88;1.70;;;;;;;9.07;75.05;100998.91;4978115;28;20038;-50
2022/05/28 03:23:49;;;;;;;6.15;1.67;;;;;;;9.07;75.17;101000.75;4984871;28;20431;-52
2022/05/28 03:26:19;;;;;;;9.52;1.65;;;;;;;9.04;74.79;100993.22;4984874;28;20033;-50
2022/05/28 03:28:45;;;;;;;8.45;2.05;;;;;;;9.07;75.18;100990.88;4979576;28;20033;-49
2022/05/28 03:31:11;;;;;;;3.30;1.45;;;;;;;9.07;75.10;100984.72;4979618;28;20061;-50
2022/05/28 03:33:37;;;;;;;7.75;1.45;;;;;;;9.05;74.96;100986.81;4979063;28;20046;-49
2022/05/28 03:36:03;;;;;;;13.73;1.92;;;;;;;9.10;74.83;100992.28;4981140;28;20380;-51
2022/05/28 03:38:29;;;;;;;8.45;1.52;;;;;;;9.11;74.89;100993.91;4983567;28;20049;-49
2022/05/28 03:40:54;;;;;;;4.55;1.50;;;;;;;9.15;74.30;100997.72;4980352;28;20030;-49
2022/05/28 03:43:20;;;;;;;5.85;1.50;;;;;;;9.22;74.17;101006.47;4980220;28;20435;-48
2022/05/28 03:45:45;;;;;;;6.47;1.35;;;;;;;9.19;73.91;101001.59;4980040;28;20105;-48
2022/05/28 03:48:11;;;;;;;7.85;1.60;;;;;;;9.18;73.62;101007.97;4981573;28;20125;-49
2022/05/28 03:50:37;;;;;;;6.15;1.30;;;;;;;9.23;73.50;101010.75;4984727;28;20034;-50
2022/05/28 03:53:04;;;;;;;4.85;1.20;;;;;;;9.24;73.68;101004.38;4979416;28;20022;-52
2022/05/28 03:55:29;;;;;;;5.25;1.55;;;;;;;9.34;73.27;101003.81;4982437;28;20046;-49
2022/05/28 03:57:55;;;;;;;5.30;1.23;;;;;;;9.26;73.20;101002.28;4979766;28;20152;-49
2022/05/28 04:00:21;;;;;;;9.20;2.03;;;;;;;9.31;73.67;101004.25;4982442;28;20030;-49
2022/05/28 04:02:46;;;;;;;5.95;1.33;;;;;;;9.35;73.40;101002.75;4983273;28;20054;-49
2022/05/28 04:05:12;;;;;;;5.53;1.40;;;;;;;9.34;73.48;100985.91;4986968;28;20035;-49
2022/05/28 04:07:39;;;;;;;9.50;1.48;;;;;;;9.31;73.40;100989.00;4985376;28;20045;-52
2022/05/28 04:10:07;;;;;;;7.43;1.35;;;;;;;9.29;73.48;100983.09;4984577;28;20031;-50
2022/05/28 04:12:33;;;;;;;3.92;1.02;;;;;;;9.28;73.25;100978.78;4983290;28;20037;-50
2022/05/28 04:14:58;;;;;;;4.45;1.00;;;;;;;9.30;73.06;100987.38;4988746;28;20461;-49
2022/05/28 04:17:24;;;;;;;5.80;1.20;;;;;;;9.26;73.13;100978.22;4983335;28;20030;-49
2022/05/28 04:19:50;;;;;;;5.93;1.30;;;;;;;9.25;73.31;100984.59;4987032;28;20027;-49
2022/05/28 04:22:16;;;;;;;3.95;1.20;;;;;;;9.29;73.32;100991.09;4985461;28;20038;-51
2022/05/28 04:24:41;;;;;;;6.63;1.20;;;;;;;9.35;73.61;100986.72;4983716;28;20777;-50
2022/05/28 04:27:07;;;;;;;5.97;1.58;;;;;;;9.35;72.56;100987.53;4983456;28;20057;-51
2022/05/28 04:29:33;;;;;;;7.60;1.02;;;;;;;9.41;72.59;100984.94;4987647;28;20511;-50
2022/05/28 04:31:59;;;;;;;5.53;1.30;;;;;;;9.48;72.11;101001.69;4984205;28;20396;-51
2022/05/28 04:34:24;;;;;;;4.32;2.42;;;;;;;9.37;72.09;100993.44;4987151;28;20022;-51
2022/05/28 04:36:50;;;;;;;2.75;0.88;;;;;;;9.42;72.19;100999.94;4986283;28;20033;-49
2022/05/28 04:39:15;;;;;;;2.33;1.00;;;;;;;9.46;71.99;100991.22;4989485;28;20034;-49
2022/05/28 04:41:41;;;;;;;5.88;0.93;;;;;;;9.36;72.29;100991.81;4985151;28;20535;-50
2022/05/28 04:44:07;;;;;;;3.58;1.00;;;;;;;9.34;72.23;100998.44;4985570;28;20053;-49
2022/05/28 04:46:32;;;;;;;5.25;1.67;;;;;;;9.35;72.30;101000.91;4988501;28;20145;-50
2022/05/28 04:48:58;;;;;;;7.05;0.90;;;;;;;9.41;72.52;101004.47;4990637;28;20507;-49
2022/05/28 04:51:23;;;;;;;3.38;1.20;;;;;;;9.45;72.31;101000.28;4981740;28;20046;-49
2022/05/28 04:53:49;;;;;;;5.60;1.10;;;;;;;9.50;72.22;100996.91;4987134;28;20057;-48
2022/05/28 04:56:15;;;;;;;4.70;1.40;;;;;;;9.45;72.16;101002.97;4988605;28;20084;-50
2022/05/28 04:58:42;;;;;;;6.85;1.17;;;;;;;9.44;71.91;100998.66;4987945;28;20398;-51
2022/05/28 05:01:12;;;;;;;5.25;1.85;;;;;;;9.48;71.56;100999.81;4989085;28;20097;-49
2022/05/28 05:03:37;;;;;;;3.38;0.90;;;;;;;9.47;71.74;100994.69;4986088;28;20061;-49
2022/05/28 05:06:03;;;;;;;3.65;1.10;;;;;;;9.55;71.75;101007.72;4985517;28;20068;-49
2022/05/28 05:08:28;;;;;;;6.22;1.20;;;;;;;9.63;71.80;101004.69;4987005;28;20034;-49
2022/05/28 05:10:54;;;;;;;4.55;0.88;;;;;;;9.67;70.91;101008.50;4986546;28;20040;-49
2022/05/28 05:13:19;;;;;;;3.58;1.00;;;;;;;9.60;70.51;100999.81;4982792;28;20030;-51
2022/05/28 05:15:44;;;;;;;2.67;1.10;;;;;;;9.63;70.74;100991.31;4987621;28;20061;-49
2022/05/28 05:18:10;;;;;;;5.90;1.08;;;;;;;9.71;70.70;101004.34;4990253;28;20515;-48
2022/05/28 05:20:36;;;;;;;6.18;1.67;;;;;;;9.77;70.65;100995.34;4980595;28;20038;-48
2022/05/28 05:23:02;;;;;;;2.10;0.90;;;;;;;9.81;70.22;100993.81;4987263;28;20073;-52
2022/05/28 05:25:27;;;;;;;4.32;1.05;;;;;;;9.90;69.66;100999.63;4984146;28;20059;-49
2022/05/28 05:27:53;;;;;;;3.35;1.02;;;;;;;10.08;69.84;100998.66;4985732;28;20030;-49
2022/05/28 05:30:18;;;;;;;3.05;0.75;;;;;;;10.16;69.12;100992.91;4984569;28;20113;-48
2022/05/28 05:32:44;;;;;;;4.60;1.45;;;;;;;10.12;68.60;101005.97;4984236;28;20129;-50
2022/05/28 05:35:09;;;;;;;3.13;1.05;;;;;;;10.04;67.90;101018.88;4985340;28;20376;-50
2022/05/28 05:37:35;;;;;;;8.65;1.30;;;;;;;10.00;68.08;101019.38;4985694;28;20113;-49
2022/05/28 05:40:00;;;;;;;4.72;0.90;;;;;;;10.13;68.42;101015.63;4985969;28;20040;-48
2022/05/28 05:42:26;;;;;;;3.20;0.80;;;;;;;10.32;68.24;101016.25;4985276;28;20034;-50
2022/05/28 05:44:53;;;;;;;4.95;1.15;;;;;;;10.32;67.44;101008.22;4983100;28;20066;-49
2022/05/28 05:47:19;;;;;;;7.13;1.10;;;;;;;10.39;67.57;101000.84;4993755;28;20027;-48
2022/05/28 05:49:45;;;;;;;4.20;0.90;;;;;;;10.39;67.14;101003.53;4984089;28;20399;-49
2022/05/28 05:52:11;;;;;;;4.45;1.10;;;;;;;10.37;67.45;101007.50;4984903;28;20030;-50
2022/05/28 05:54:36;;;;;;;1.55;0.80;;;;;;;10.37;66.63;101013.66;4983131;28;20022;-48
2022/05/28 05:57:02;;;;;;;5.30;1.42;;;;;;;10.36;66.15;101003.19;4989486;28;20033;-49
2022/05/28 05:59:27;;;;;;;7.00;1.00;;;;;;;10.38;66.19;101012.63;4984987;28;20026;-49
2022/05/28 06:01:53;;;;;;;7.13;1.38;;;;;;;10.34;66.61;101008.81;4986079;28;20083;-49
2022/05/28 06:04:19;;;;;;;2.25;0.90;;;;;;;10.32;66.00;101020.81;4985821;28;20088;-53
2022/05/28 06:06:44;;;;;;;6.10;1.20;;;;;;;10.19;65.82;101021.88;4986336;28;20041;-52
2022/05/28 06:09:13;;;;;;;2.55;0.88;;;;;;;10.27;65.66;101022.34;4986116;28;20109;-60
2022/05/28 06:11:39;;;;;;;2.80;0.80;;;;;;;10.35;65.43;101013.09;4992095;28;20026;-52
2022/05/28 06:14:04;;;;;;;10.07;1.40;;;;;;;10.44;65.36;101014.34;4984915;28;20545;-49
2022/05/28 06:16:30;;;;;;;4.13;1.10;;;;;;;10.50;65.29;101012.56;4983358;28;21205;-50
2022/05/28 06:18:55;;;;;;;3.88;1.10;;;;;;;10.52;64.72;101008.59;4968305;28;20035;-52
2022/05/28 06:21:21;;;;;;;4.72;0.98;;;;;;;10.56;64.67;101004.38;4971453;28;20114;-52
2022/05/28 06:23:46;;;;;;;4.55;1.05;;;;;;;10.45;63.70;100994.56;4968246;28;20045;-51
2022/05/28 06:26:13;;;;;;;5.88;1.02;;;;;;;10.55;64.10;101001.94;4969449;28;20038;-52
2022/05/28 06:28:39;;;;;;;5.28;1.15;;;;;;;10.50;64.12;101001.84;4970759;28;20069;-50
2022/05/28 06:31:08;;;;;;;4.53;1.10;;;;;;;10.45;64.07;100999.91;4968499;28;20278;-52
2022/05/28 06:33:35;;;;;;;7.47;1.30;;;;;;;10.49;64.54;101001.03;4968729;28;20104;-49
2022/05/28 06:36:02;;;;;;;5.22;1.23;;;;;;;10.56;64.30;100998.19;4966327;28;21412;-50
2022/05/28 06:38:28;;;;;;;4.80;1.30;;;;;;;10.65;64.57;101001.31;4970592;28;20027;-51
2022/05/28 06:40:54;;;;;;;4.22;1.10;;;;;;;10.69;64.70;101005.13;4968490;28;20054;-54
2022/05/28 06:43:20;;;;;;;5.28;1.27;;;;;;;10.76;64.15;101011.13;4969040;28;20122;-51
2022/05/28 06:45:46;;;;;;;3.00;1.23;;;;;;;10.73;63.77;100999.03;4968470;28;20129;-54
2022/05/28 06:48:12;;;;;;;4.30;1.10;;;;;;;10.86;64.17;101017.50;4967070;28;20042;-50
2022/05/28 06:53:23;;;;;;;5.07;1.63;;;;;;;10.81;63.41;100995.97;4983348;28;20877;-50
2022/05/28 06:55:49;;;;;;;4.50;0.90;;;;;;;10.82;63.76;101010.19;4992953;28;20034;-54
2022/05/28 06:58:15;;;;;;;7.22;1.42;;;;;;;10.94;63.41;101002.84;4987042;28;20044;-52
2022/05/28 07:00:41;;;;;;;4.70;1.00;;;;;;;11.01;63.09;101010.75;4981925;28;20440;-52
2022/05/28 07:03:12;;;;;;;4.10;0.93;;;;;;;11.00;62.73;101001.09;4988642;28;20034;-50
2022/05/28 07:05:38;;;;;;;3.15;0.85;;;;;;;11.16;63.07;101000.25;4988106;28;20392;-53
2022/05/28 07:08:03;;;;;;;2.97;1.13;;;;;;;11.32;62.94;101001.31;4982995;28;20096;-51
2022/05/28 07:10:29;;;;;;;7.93;1.60;;;;;;;11.42;62.65;101006.78;4985155;28;20024;-53
2022/05/28 07:12:55;;;;;;;7.10;1.50;;;;;;;11.44;61.80;101004.69;4979983;28;20086;-52
2022/05/28 07:15:20;;;;;;;5.88;1.20;;;;;;;11.48;61.61;101003.13;4983569;28;20034;-52
2022/05/28 07:17:46;;;;;;;6.40;1.25;;;;;;;11.54;61.25;101002.16;4983245;28;20033;-52
2022/05/28 07:20:12;;;;;;;8.13;1.27;;;;;;;11.55;60.76;101014.50;4986997;28;20023;-49
2022/05/28 07:22:38;;;;;;;5.15;1.40;;;;;;;11.51;60.77;101002.66;4978702;28;20096;-51
2022/05/28 07:25:03;;;;;;;11.55;2.10;;;;;;;11.51;60.50;101008.00;4979813;28;20496;-50
2022/05/28 07:27:29;;;;;;;7.32;1.42;;;;;;;11.66;60.80;100997.44;4980554;28;20174;-52
2022/05/28 07:29:55;;;;;;;2.97;1.15;;;;;;;11.68;60.73;101014.16;4982295;28;20077;-49
2022/05/28 07:32:29;;;;;;;3.03;0.73;;;;;;;11.73;60.37;101019.56;4985006;28;20030;-51
2022/05/28 07:34:55;;;;;;;6.63;1.20;;;;;;;11.59;59.97;101012.13;4979602;28;20026;-51
2022/05/28 07:37:20;;;;;;;6.28;1.02;;;;;;;11.43;60.30;101014.59;4968192;28;20041;-52
2022/05/28 07:39:46;;;;;;;7.35;1.45;;;;;;;11.41;60.70;101007.84;4965790;28;20034;-51
2022/05/28 07:42:11;;;;;;;5.03;1.00;;;;;;;11.44;60.76;101012.72;4966999;28;20089;-51
2022/05/28 07:44:37;;;;;;;6.07;1.42;;;;;;;11.55;61.07;101005.63;4979909;28;20120;-51
2022/05/28 07:47:07;;;;;;;3.25;1.00;;;;;;;11.46;60.67;101016.78;4983698;28;20404;-49
2022/05/28 07:49:36;;;;;;;3.83;0.90;;;;;;;11.48;61.37;101011.97;4983500;28;20063;-51
2022/05/28 07:52:02;;;;;;;7.50;1.20;;;;;;;11.43;61.37;101011.09;4985209;28;20073;-51
2022/05/28 07:54:27;;;;;;;3.80;1.23;;;;;;;11.46;61.49;101013.28;4984629;28;20037;-51
2022/05/28 07:56:53;;;;;;;3.25;1.05;;;;;;;11.43;60.82;101016.47;4985122;28;20057;-52
2022/05/28 07:59:18;;;;;;;4.60;1.40;;;;;;;11.39;61.37;101001.94;4983142;28;20034;-49
2022/05/28 08:01:44;;;;;;;5.50;1.67;;;;;;;11.38;61.26;101009.16;4981935;28;20030;-49
2022/05/28 08:04:10;;;;;;;7.05;1.10;;;;;;;11.45;61.63;101006.28;4979341;28;20429;-51
2022/05/28 08:06:37;;;;;;;7.45;1.10;;;;;;;11.44;61.42;101013.53;4966275;28;20018;-52
2022/05/28 08:09:05;;;;;;;6.13;1.20;;;;;;;11.60;61.63;101006.50;4984534;28;20037;-52
2022/05/28 08:11:30;;;;;;;7.00;1.13;;;;;;;11.60;61.13;101001.13;4980486;28;20030;-52
2022/05/28 08:13:56;;;;;;;3.95;1.10;;;;;;;11.67;61.22;101001.78;4981696;28;20026;-51
2022/05/28 08:16:22;;;;;;;5.57;1.33;;;;;;;11.76;61.25;101005.66;4993047;28;20468;-52
2022/05/28 08:18:48;;;;;;;4.95;1.42;;;;;;;11.77;61.35;101014.50;4985414;28;20144;-51
2022/05/28 08:23:58;;;;;;;6.10;1.02;;;;;;;11.76;61.41;101005.66;4976728;28;20057;-53
2022/05/28 08:26:24;;;;;;;5.85;1.77;;;;;;;11.76;61.19;101010.22;4981234;28;20022;-54
2022/05/28 08:28:52;;;;;;;5.40;1.17;;;;;;;11.68;61.53;101021.38;4980915;28;20112;-53
2022/05/28 08:31:19;;;;;;;2.95;1.10;;;;;;;11.78;61.49;101013.44;4986213;28;20038;-53
2022/05/28 08:33:45;;;;;;;4.47;1.02;;;;;;;11.89;61.33;101020.59;4982490;28;20211;-52
2022/05/28 08:36:11;;;;;;;5.63;1.98;;;;;;;11.84;61.25;101025.09;4983341;28;20099;-53
2022/05/28 08:38:39;;;;;;;7.32;1.38;;;;;;;11.83;60.62;101016.22;4986274;28;20026;-52
2022/05/28 08:41:20;;;;;;;5.32;1.15;;;;;;;11.87;61.52;101013.88;4986123;28;20022;-52
2022/05/28 08:44:02;;;;;;;4.75;1.35;;;;;;;11.84;61.04;101009.78;4983911;28;20034;-52
2022/05/28 08:46:33;;;;;;;7.88;1.63;;;;;;;11.86;60.65;101028.34;4981494;28;20038;-53
2022/05/28 08:48:59;;;;;;;6.50;1.23;;;;;;;11.80;60.62;101020.22;4989061;28;20022;-54
2022/05/28 08:51:48;;;;;;;4.53;1.70;;;;;;;11.77;61.03;101020.69;4987724;28;20059;-52
2022/05/28 08:54:26;;;;;;;4.03;1.38;;;;;;;11.69;62.44;101026.50;4975587;28;20046;-53
2022/05/28 08:56:57;;;;;;;6.95;1.25;;;;;;;11.54;64.16;101034.34;4976360;28;20033;-53
2022/05/28 08:59:37;;;;;;;9.23;1.60;;;;;;;11.58;65.54;101030.09;4985386;28;20034;-53
2022/05/28 09:02:10;;;;;;;7.35;1.50;;;;;;;11.45;66.69;101041.19;4983593;28;20038;-52
2022/05/28 09:04:40;;;;;;;5.35;1.52;;;;;;;11.46;67.46;101032.06;4980697;28;20044;-53
2022/05/28 09:07:11;;;;;;;6.13;1.40;;;;;;;11.44;68.34;101045.72;4982233;28;20126;-53
2022/05/28 09:09:40;;;;;;;3.83;1.27;;;;;;;11.46;68.77;101038.25;4982702;28;20015;-52
2022/05/28 09:12:10;;;;;;;5.25;1.40;;;;;;;11.53;68.63;101043.44;4980569;28;20022;-59
2022/05/28 09:14:38;;;;;;;6.13;1.35;;;;;;;11.46;69.74;101050.84;4985789;28;20026;-60
2022/05/28 09:17:11;;;;;;;8.25;1.85;;;;;;;11.47;70.22;101047.09;4984856;28;20037;-56
2022/05/28 09:19:41;;;;;;;6.03;1.48;;;;;;;11.49;70.05;101047.69;4975743;28;20069;-55
2022/05/28 09:22:08;;;;;;;10.00;1.80;;;;;;;11.58;70.68;101056.13;4969762;28;20727;-57
2022/05/28 09:24:34;;;;;;;5.00;1.40;;;;;;;11.56;71.64;101053.69;4966328;28;20169;-56
2022/05/28 09:27:29;;;;;;;7.32;1.40;;;;;;;11.49;71.38;101066.47;4965463;28;20030;-57
2022/05/28 09:30:16;;;;;;;5.75;1.77;;;;;;;11.38;71.53;101072.75;4987661;28;20038;-56
2022/05/28 09:33:22;;;;;;;6.32;1.50;;;;;;;11.30;73.69;101073.13;4987549;28;20129;-55
2022/05/28 09:35:59;;;;;;;6.60;1.85;;;;;;;11.36;73.69;101091.75;4987641;28;20157;-58
2022/05/28 09:38:34;;;;;;;6.65;1.95;;;;;;;11.35;73.37;101074.06;4977656;28;20037;-51
2022/05/28 09:41:27;;;;;;;5.90;1.92;;;;;;;11.35;74.44;101073.22;4981264;28;20111;-50
2022/05/28 09:44:08;;;;;;;5.03;1.83;;;;;;;11.29;75.16;101084.91;4987554;28;20033;-50
2022/05/28 09:46:39;;;;;;;6.95;1.45;;;;;;;11.21;75.07;101083.47;4984932;28;20030;-48
2022/05/28 09:49:20;;;;;;;3.33;1.45;;;;;;;11.21;76.28;101088.84;4989860;28;20018;-49
2022/05/28 09:51:57;;;;;;;6.85;1.42;;;;;;;11.17;76.39;101088.53;4985873;28;20056;-49
2022/05/28 09:54:33;;;;;;;5.60;1.30;;;;;;;11.16;76.86;101086.91;4981446;28;20034;-50
2022/05/28 09:57:27;;;;;;;4.45;1.98;;;;;;;11.04;77.71;101088.00;4985446;28;20030;-46
2022/05/28 10:00:02;;;;;;;8.95;1.70;;;;;;;10.92;77.13;101095.31;4983183;28;20501;-55
2022/05/28 10:02:32;;;;;;;5.72;1.55;;;;;;;10.83;76.70;101093.03;4982517;28;20034;-49
2022/05/28 10:05:14;;;;;;;8.80;1.88;;;;;;;10.86;78.11;101105.94;4982978;28;20457;-51
2022/05/28 10:07:49;;;;;;;5.78;1.65;;;;;;;10.71;78.24;101094.94;4985126;28;20400;-52
2022/05/28 10:10:15;;;;;;;8.23;2.05;;;;;;;10.72;77.93;101095.75;4988785;28;20468;-48
2022/05/28 10:12:40;;;;;;;4.72;2.15;;;;;;;10.75;79.33;101104.13;4983379;28;20042;-52
2022/05/28 10:15:18;;;;;;;7.95;2.05;;;;;;;10.77;78.44;101106.56;4983576;28;20181;-49
2022/05/28 10:17:52;;;;;;;5.93;1.70;;;;;;;10.76;78.82;101103.06;4981655;28;20066;-49
2022/05/28 10:20:20;;;;;;;7.05;1.85;;;;;;;10.80;78.81;101111.47;4981980;28;20029;-49
2022/05/28 10:22:52;;;;;;;7.35;1.58;;;;;;;10.86;78.75;101108.63;4983711;28;20073;-50
2022/05/28 10:25:31;;;;;;;9.38;2.08;;;;;;;10.85;77.67;101096.28;4992664;28;20091;-48
2022/05/28 10:27:58;;;;;;;6.22;2.10;;;;;;;10.90;77.59;101109.75;4986007;28;20037;-48
2022/05/28 10:30:26;;;;;;;8.43;2.13;;;;;;;10.95;78.29;101106.38;4983691;28;21747;-49
2022/05/28 10:32:53;;;;;;;6.57;1.80;;;;;;;10.88;77.03;101106.50;4981421;28;20034;-50
2022/05/28 10:35:27;;;;;;;6.93;1.90;;;;;;;10.96;77.00;101110.69;4978178;28;20616;-49
2022/05/28 10:38:04;;;;;;;9.10;2.05;;;;;;;11.00;76.24;101103.78;4979811;28;20100;-49
2022/05/28 10:40:30;;;;;;;5.93;2.08;;;;;;;11.13;76.68;101108.00;4996209;28;20030;-51
2022/05/28 10:43:02;;;;;;;7.22;1.65;;;;;;;11.26;76.51;101099.63;4981258;28;20033;-52
2022/05/28 10:45:38;;;;;;;7.60;2.08;;;;;;;11.42;76.48;101109.56;4983252;28;20033;-50
2022/05/28 10:48:27;;;;;;;4.80;1.98;;;;;;;11.56;75.11;101093.94;4981189;28;20026;-52
2022/05/28 10:51:10;;;;;;;6.63;2.30;;;;;;;11.73;74.68;101097.41;4984250;28;20494;-49
2022/05/28 10:53:57;;;;;;;5.93;1.80;;;;;;;11.86;73.92;101107.03;4982009;28;20708;-50
2022/05/28 10:56:48;;;;;;;5.15;1.67;;;;;;;11.99;72.22;101095.09;4982221;28;20030;-51
2022/05/28 10:59:38;;;;;;;5.90;1.83;;;;;;;12.20;72.48;101086.22;4980293;28;20052;-51
2022/05/28 11:02:06;;;;;;;7.75;1.90;;;;;;;12.35;69.61;101099.84;4978103;28;20034;-59
2022/05/28 11:04:35;;;;;;;7.53;2.20;;;;;;;12.47;69.16;101090.84;4981517;28;20109;-53
2022/05/28 11:07:24;;;;;;;10.15;1.85;;;;;;;12.82;69.64;101088.53;4977830;28;20153;-50
2022/05/28 11:10:13;;;;;;;11.40;2.33;;;;;;;13.05;66.94;101086.56;4979704;28;20273;-49
2022/05/28 11:12:53;;;;;;;6.70;2.13;;;;;;;13.16;65.93;101094.47;4982896;28;20499;-49
2022/05/28 11:15:37;;;;;;;8.23;1.80;;;;;;;13.18;63.78;101087.00;4980144;28;20037;-53
2022/05/28 11:18:31;;;;;;;9.02;1.77;;;;;;;13.42;64.72;101092.81;4980365;28;20129;-49
2022/05/28 11:21:09;;;;;;;8.35;1.70;;;;;;;13.83;64.84;101085.03;4983115;28;20109;-49
2022/05/28 11:23:40;;;;;;;5.18;1.70;;;;;;;14.14;61.10;101092.16;4978369;28;20086;-48
2022/05/28 11:26:17;;;;;;;49.38;24.45;;;;;;;14.32;60.59;101090.06;4978604;28;20034;-51
2022/05/28 11:29:13;;;;;;;11.68;4.97;;;;;;;14.34;59.39;101086.03;4974309;28;20025;-51
2022/05/28 11:31:54;;;;;;;5.80;1.67;;;;;;;14.03;58.07;101093.19;4981244;28;20062;-52
2022/05/28 11:34:26;;;;;;;3.70;1.15;;;;;;;14.01;58.52;101098.03;4973701;28;20077;-52
2022/05/28 11:36:57;;;;;;;6.10;1.55;;;;;;;13.94;58.49;101089.38;4981951;28;20121;-52
2022/05/28 11:39:55;;;;;;;7.78;1.65;;;;;;;14.00;58.52;101085.63;4984622;28;20608;-50
2022/05/28 11:42:51;;;;;;;8.40;1.63;;;;;;;14.09;57.71;101102.09;4967544;28;20054;-51
2022/05/28 11:45:25;;;;;;;5.15;1.40;;;;;;;13.88;55.91;101110.09;4979221;28;20347;-52
2022/05/28 11:48:16;;;;;;;5.25;1.30;;;;;;;13.91;55.57;101100.66;4978851;28;20039;-51